createdAt,value
2022-12-20T00:04:21.763Z,5.03
2022-12-20T00:09:25.301Z,5.90
2022-12-20T00:14:27.664Z,5.55
2022-12-20T00:19:31.641Z,6.78
2022-12-20T00:24:34.058Z,5.65
2022-12-20T00:29:36.429Z,5.15
2022-12-20T00:34:40.208Z,5.65
2022-12-20T00:39:42.593Z,5.65
2022-12-20T00:44:44.987Z,5.20
2022-12-20T00:49:48.708Z,9.82
2022-12-20T00:54:51.077Z,4.53
2022-12-20T00:59:53.459Z,5.80
2022-12-20T01:04:57.284Z,6.97
2022-12-20T01:09:59.698Z,5.90
2022-12-20T01:15:02.135Z,5.35
2022-12-20T01:20:06.704Z,6.90
2022-12-20T01:25:09.436Z,5.63
2022-12-20T01:30:12.517Z,4.83
2022-12-20T01:35:16.553Z,5.43
2022-12-20T01:40:18.991Z,4.15
2022-12-20T01:45:24.253Z,4.03
2022-12-20T01:50:28.532Z,4.53
2022-12-20T01:55:31.276Z,4.05
2022-12-20T02:00:33.687Z,4.77
2022-12-20T02:05:38.377Z,4.72
2022-12-20T02:10:48.331Z,3.25
2022-12-20T02:15:54.919Z,3.70
2022-12-20T02:21:14.422Z,3.80
2022-12-20T02:26:24.416Z,3.38
2022-12-20T02:31:33.983Z,4.30
2022-12-20T02:36:36.408Z,3.75
2022-12-20T02:41:40.403Z,4.65
2022-12-20T02:46:44.745Z,3.38
2022-12-20T02:51:48.444Z,5.65
2022-12-20T02:56:52.830Z,5.13
2022-12-20T03:01:57.747Z,5.38
2022-12-20T03:07:01.478Z,5.70
2022-12-20T03:12:04.367Z,5.47
2022-12-20T03:17:09.488Z,8.10
2022-12-20T03:22:11.983Z,5.65
2022-12-20T03:27:14.337Z,8.25
2022-12-20T03:32:18.015Z,6.95
2022-12-20T03:37:20.379Z,6.03
2022-12-20T03:42:22.791Z,6.43
2022-12-20T03:47:26.526Z,6.75
2022-12-20T03:52:28.928Z,6.00
2022-12-20T03:57:31.348Z,7.35
2022-12-20T04:02:35.200Z,7.45
2022-12-20T04:07:37.723Z,6.63
2022-12-20T04:12:40.093Z,5.32
2022-12-20T04:17:43.886Z,5.43
2022-12-20T04:22:46.487Z,5.53
2022-12-20T04:27:48.861Z,5.83
2022-12-20T04:32:54.631Z,5.03
2022-12-20T04:37:57.049Z,5.55
2022-12-20T04:42:59.469Z,5.03
2022-12-20T04:48:28.417Z,5.90
2022-12-20T04:53:43.297Z,12.03
2022-12-20T04:58:45.895Z,7.30
2022-12-20T05:03:50.124Z,4.20
2022-12-20T05:08:52.614Z,4.97
2022-12-20T05:13:55.000Z,4.73
2022-12-20T05:18:58.856Z,4.35
2022-12-20T05:24:18.979Z,4.60
2022-12-20T05:29:21.509Z,4.50
2022-12-20T05:34:25.329Z,4.20
2022-12-20T05:39:27.975Z,5.82
2022-12-20T05:44:30.287Z,4.10
2022-12-20T05:49:34.561Z,4.10
2022-12-20T05:54:36.888Z,5.35
2022-12-20T05:59:39.234Z,6.53
2022-12-20T06:04:42.995Z,4.07
2022-12-20T06:09:45.336Z,6.47
2022-12-20T06:14:47.675Z,7.40
2022-12-20T06:19:51.404Z,8.75
2022-12-20T06:24:53.799Z,7.53
2022-12-20T06:29:56.156Z,18.23
2022-12-20T06:34:59.926Z,10.43
2022-12-20T06:40:02.315Z,11.30
2022-12-20T06:45:04.795Z,9.48
2022-12-20T06:50:09.299Z,9.60
2022-12-20T06:55:11.711Z,9.27
2022-12-20T07:00:14.619Z,6.38
2022-12-20T07:05:18.543Z,7.85
2022-12-20T07:10:20.904Z,9.27
2022-12-20T07:15:23.299Z,10.10
2022-12-20T07:20:27.033Z,12.10
2022-12-20T07:25:29.580Z,7.07
2022-12-20T07:30:32.165Z,7.50
2022-12-20T07:35:36.164Z,7.13
2022-12-20T07:40:40.885Z,7.35
2022-12-20T07:45:43.327Z,7.75
2022-12-20T07:50:47.618Z,9.85
2022-12-20T07:55:50.340Z,8.77
2022-12-20T08:00:52.955Z,8.67
2022-12-20T08:05:57.308Z,7.70
2022-12-20T08:10:59.861Z,7.18
2022-12-20T08:16:02.216Z,6.97
2022-12-20T08:21:06.216Z,6.20
2022-12-20T08:26:08.639Z,9.02
2022-12-20T08:31:12.750Z,7.60
2022-12-20T08:36:16.578Z,6.30
2022-12-20T08:41:19.011Z,5.00
2022-12-20T08:46:21.425Z,7.53
2022-12-20T08:51:25.291Z,7.93
2022-12-20T08:56:27.828Z,8.57
2022-12-20T09:01:33.653Z,7.30
2022-12-20T09:06:37.734Z,5.00
2022-12-20T09:11:40.177Z,4.00
2022-12-20T09:16:42.561Z,5.63
2022-12-20T09:21:46.271Z,5.82
2022-12-20T09:26:50.487Z,3.60
2022-12-20T09:31:54.483Z,3.10
2022-12-20T09:36:58.216Z,4.43
2022-12-20T09:42:00.638Z,5.22
2022-12-20T09:47:10.592Z,4.43
2022-12-20T09:52:23.043Z,7.22
2022-12-20T09:57:30.198Z,6.32
2022-12-20T10:02:58.327Z,4.25
2022-12-20T10:07:58.467Z,5.15
2022-12-20T10:13:03.223Z,5.50
2022-12-20T10:18:19.551Z,6.28
2022-12-20T10:23:32.812Z,7.68
2022-12-20T10:33:38.163Z,5.45
2022-12-20T10:38:46.510Z,6.13
2022-12-20T10:43:50.528Z,6.18
2022-12-20T10:48:52.881Z,8.30
2022-12-20T10:53:58.187Z,6.40
2022-12-20T10:59:01.609Z,7.32
2022-12-20T11:09:23.985Z,5.93
2022-12-20T11:14:26.754Z,7.75
2022-12-20T11:19:39.497Z,6.93
2022-12-20T11:24:46.623Z,10.60
2022-12-20T11:29:57.216Z,9.25
2022-12-20T11:35:04.267Z,7.53
2022-12-20T11:40:17.893Z,8.25
2022-12-20T11:45:24.796Z,9.43
2022-12-20T11:50:35.260Z,9.25
2022-12-20T11:55:41.729Z,10.45
2022-12-20T12:00:48.568Z,7.45
2022-12-20T12:05:53.798Z,7.68
2022-12-20T12:11:00.235Z,10.75
2022-12-20T12:16:04.692Z,8.73
2022-12-20T12:21:10.256Z,10.00
2022-12-20T12:26:19.688Z,11.73
2022-12-20T12:31:24.940Z,9.50
2022-12-20T12:36:40.328Z,7.38
2022-12-20T12:42:16.942Z,7.88
2022-12-20T12:47:22.925Z,9.85
2022-12-20T12:52:40.191Z,9.02
2022-12-20T12:57:55.569Z,6.82
2022-12-20T13:02:59.410Z,12.15
2022-12-20T13:08:02.249Z,7.32
2022-12-20T13:13:13.489Z,8.50
2022-12-20T13:18:24.777Z,7.30
2022-12-20T13:23:27.250Z,7.53
2022-12-20T13:28:45.211Z,7.27
2022-12-20T13:33:49.747Z,10.52
2022-12-20T13:38:54.011Z,7.47
2022-12-20T13:43:57.061Z,9.80
2022-12-20T13:49:03.038Z,8.57
2022-12-20T13:54:08.548Z,7.15
2022-12-20T13:59:15.327Z,10.77
2022-12-20T14:04:20.328Z,9.75
2022-12-20T14:09:29.891Z,8.27
2022-12-20T14:14:32.320Z,9.45
2022-12-20T14:19:36.157Z,11.93
2022-12-20T14:24:39.684Z,9.15
2022-12-20T14:29:42.573Z,9.45
2022-12-20T14:34:47.452Z,11.57
2022-12-20T14:39:55.931Z,12.77
2022-12-20T14:45:03.554Z,12.32
2022-12-20T14:50:17.840Z,12.80
2022-12-20T14:55:21.764Z,10.85
2022-12-20T15:00:25.490Z,10.18
2022-12-20T15:05:42.086Z,13.18
2022-12-20T15:10:48.459Z,14.25
2022-12-20T15:15:50.855Z,12.57
2022-12-20T15:21:00.220Z,13.18
2022-12-20T15:26:02.828Z,12.45
2022-12-20T15:31:05.676Z,12.97
2022-12-20T15:36:14.655Z,14.57
2022-12-20T15:41:19.824Z,13.23
2022-12-20T15:46:22.352Z,14.88
2022-12-20T15:51:28.715Z,12.13
2022-12-20T15:56:31.609Z,13.43
2022-12-20T16:01:40.360Z,12.70
2022-12-20T16:06:44.777Z,13.80
2022-12-20T16:11:47.260Z,11.27
2022-12-20T16:16:50.176Z,11.90
2022-12-20T16:21:54.139Z,13.15
2022-12-20T16:26:56.494Z,12.45
2022-12-20T16:31:58.951Z,12.30
2022-12-20T16:37:02.855Z,14.73
2022-12-20T16:42:07.645Z,12.63
2022-12-20T16:47:10.762Z,12.95
2022-12-20T16:52:17.607Z,12.30
2022-12-20T16:57:21.194Z,11.52
2022-12-20T17:02:26.852Z,12.68
2022-12-20T17:07:30.698Z,13.00
2022-12-20T17:12:33.048Z,14.05
2022-12-20T17:17:35.405Z,13.85
2022-12-20T17:22:39.162Z,15.90
2022-12-20T17:27:42.822Z,16.17
2022-12-20T17:32:45.576Z,17.17
2022-12-20T17:37:50.705Z,17.70
2022-12-20T17:42:53.402Z,15.43
2022-12-20T17:47:56.144Z,16.73
2022-12-20T17:52:59.880Z,16.70
2022-12-20T17:58:02.317Z,15.65
2022-12-20T18:03:04.789Z,19.45
2022-12-20T18:08:09.556Z,18.27
2022-12-20T18:13:12.004Z,19.63
2022-12-20T18:18:14.447Z,19.60
2022-12-20T18:23:18.159Z,20.38
2022-12-20T18:28:20.549Z,24.00
2022-12-20T18:33:22.931Z,23.10
2022-12-20T18:38:26.727Z,25.40
2022-12-20T18:43:30.590Z,27.77
2022-12-20T18:48:33.209Z,26.45
2022-12-20T18:53:37.426Z,25.37
2022-12-20T18:58:39.800Z,25.95
2022-12-20T19:03:42.517Z,25.95
2022-12-20T19:08:46.278Z,28.63
2022-12-20T19:13:49.741Z,33.83
2022-12-20T19:18:52.523Z,33.40
2022-12-20T19:23:57.150Z,35.42
2022-12-20T19:29:00.034Z,34.78
2022-12-20T19:34:03.484Z,34.20
2022-12-20T19:44:09.920Z,36.35
2022-12-20T19:49:13.436Z,34.38
2022-12-20T19:54:16.968Z,36.08
2022-12-20T19:59:21.019Z,39.17
2022-12-20T20:04:23.428Z,36.92
2022-12-20T20:09:25.821Z,39.03
2022-12-20T20:14:29.629Z,38.58
2022-12-20T20:19:33.917Z,40.50
2022-12-20T20:24:36.253Z,38.42
2022-12-20T20:29:40.153Z,39.90
2022-12-20T20:34:42.503Z,38.05
2022-12-20T20:39:44.881Z,42.08
2022-12-20T20:44:48.598Z,38.42
2022-12-20T20:49:52.699Z,38.47
2022-12-20T20:54:55.126Z,42.63
2022-12-20T20:59:58.796Z,38.67
2022-12-20T21:05:52.497Z,43.20
2022-12-20T21:10:23.609Z,44.13
2022-12-20T21:15:28.034Z,41.93
2022-12-20T21:20:30.440Z,43.38
2022-12-20T21:25:38.303Z,40.50
2022-12-20T21:30:42.134Z,43.53
2022-12-20T21:35:49.950Z,47.22
2022-12-20T21:40:59.795Z,50.08
2022-12-20T21:46:03.558Z,46.03
2022-12-20T21:51:06.606Z,46.45
2022-12-20T21:56:09.007Z,54.90
2022-12-20T22:01:15.444Z,58.92
2022-12-20T22:06:18.194Z,46.08
2022-12-20T22:11:20.614Z,52.30
2022-12-20T22:16:25.455Z,64.97
2022-12-20T22:21:29.274Z,57.08
2022-12-20T22:26:33.114Z,55.95
2022-12-20T22:31:37.731Z,60.28
2022-12-20T22:36:40.177Z,60.70
2022-12-20T22:41:42.669Z,50.33
2022-12-20T22:46:46.381Z,64.07
2022-12-20T22:52:02.438Z,63.45
2022-12-20T22:57:10.316Z,57.25
2022-12-20T23:02:14.175Z,58.65
2022-12-20T23:07:16.852Z,64.13
2022-12-20T23:12:36.776Z,56.17
2022-12-20T23:17:40.440Z,60.85
2022-12-20T23:22:42.848Z,59.63
2022-12-20T23:27:46.239Z,62.22
2022-12-20T23:37:52.688Z,66.03
2022-12-20T23:42:55.365Z,77.20
2022-12-20T23:47:57.701Z,71.80
2022-12-20T23:53:01.688Z,81.18
2022-12-20T23:58:04.087Z,77.00
